Eagle River, Alaska
Current Conditions -  °F | °C
As of 5:16 AM on Thursday 29 Jan 2015 (Local Time) from PABV Reporting Station
Overcast Overcast  
Wind Chill:   Ceiling: 100
Heat Index:   Visibility: 0.5mi
Dew Point:   Wind: 3mph
Humidity: 100%   Direction: 170°S
Pressure: 30.01"   Gusts: NA
Location:  61.32°N, 149.58°W
Report Text: PABV 291416Z AUTO 17003KT 1/2SM OVC001 M18/M18 A3001 RMK AO1
Loading
Personal Weather Stations






























Interactive Weather Map New forecast layout! Learn more

10-Day Weather Forecast

Advertisements
Track Severe Weather on mobile